KMHV/MHV METAR and TAF weather

Enter ICAO airport designator
Station Type Date Time Source
KMHV METAR 2020/10/29 17:20 UTC NOAA

KMHV 291720Z AUTO 00000KT 10SM CLR 19/M10 A3019 RMK A01


Station Type Date Time Source
KMHV Decoded METAR 2020/10/29 17:20 UTC NOAA

Mojave, CA, United States (KMHV) 35-04N 118-09W
Oct 29, 2020 - 01:20 PM EDT / 2020.10.29 1720 UTC
Wind: Calm:0
Visibility: 10 mile(s):0
Sky conditions: clear
Temperature: 66 F (19 C)
Dew Point: 14 F (-10 C)
Relative Humidity: 13%
Pressure (altimeter): 30.19 in. Hg (1022 hPa)
ob: KMHV 291720Z AUTO 00000KT 10SM CLR 19/M10 A3019 RMK A01
cycle: 17

Station Type Date Time Source
KMHV TAF UTC NOAA

Error!

Example: see airport list